Time;durP1;ratioP1;P1;durP2;ratioP2;P2;SDS_P1;SDS_P2;PMS_P1;PMS_P2;Temp;Humidity;BMP_temperature;BMP_pressure;BME280_temperature;BME280_humidity;BME280_pressure;Samples;Min_cycle;Max_cycle;Signal;HPM_P1;HPM_P2
2022/11/08 00:01:42;;;;;;;4.20;3.20;;;;;;;;;;5002355;28;20479;-46
2022/11/08 00:04:11;;;;;;;4.80;3.30;;;;;;;;;;4998162;28;20507;-45
2022/11/08 00:14:53;;;;;;;7.67;3.23;;;;;;;;;;4997974;28;20494;-45
2022/11/08 00:17:21;;;;;;;10.37;3.30;;;;;;;;;;5004129;28;20416;-44
2022/11/08 00:19:47;;;;;;;7.43;3.03;;;;;;;;;;5010240;28;20410;-44
2022/11/08 00:22:14;;;;;;;4.10;2.70;;;;;;;;;;5003399;28;20427;-44
2022/11/08 00:24:40;;;;;;;10.13;3.10;;;;;;;;;;5001655;28;20423;-45
2022/11/08 00:27:08;;;;;;;7.23;2.60;;;;;;;;;;5003014;28;20425;-44
2022/11/08 00:29:35;;;;;;;12.17;3.60;;;;;;;;;;4994493;28;20445;-45
2022/11/08 00:32:01;;;;;;;3.50;3.17;;;;;;;;;;5003689;28;20522;-46
2022/11/08 00:34:27;;;;;;;6.77;2.93;;;;;;;;;;4996245;28;20836;-45
2022/11/08 00:36:53;;;;;;;6.93;3.57;;;;;;;;;;5003555;28;20412;-44
2022/11/08 00:39:19;;;;;;;4.83;2.70;;;;;;;;;;4997851;28;20499;-44
2022/11/08 00:41:45;;;;;;;6.53;3.60;;;;;;;;;;5002029;28;21176;-44
2022/11/08 00:44:11;;;;;;;35.23;19.50;;;;;;;;;;4994165;28;20405;-44
2022/11/08 00:46:37;;;;;;;8.33;3.80;;;;;;;;;;5000893;28;20988;-44
2022/11/08 00:49:04;;;;;;;4.50;2.73;;;;;;;;;;4999887;28;20981;-44
2022/11/08 00:51:30;;;;;;;5.13;3.07;;;;;;;;;;5005487;28;20514;-46
2022/11/08 00:53:56;;;;;;;10.80;3.20;;;;;;;;;;4989650;28;20407;-45
2022/11/08 00:56:22;;;;;;;6.30;3.10;;;;;;;;;;5000472;28;20849;-43
2022/11/08 00:58:48;;;;;;;5.70;2.93;;;;;;;;;;5000155;28;20958;-44
2022/11/08 01:01:15;;;;;;;4.10;2.77;;;;;;;;;;4999495;28;20507;-44
2022/11/08 01:03:42;;;;;;;3.43;2.63;;;;;;;;;;5001615;28;20417;-44
2022/11/08 01:06:09;;;;;;;5.50;2.40;;;;;;;;;;5000150;28;20449;-44
2022/11/08 01:08:36;;;;;;;3.70;2.53;;;;;;;;;;5003749;28;20425;-45
2022/11/08 01:11:03;;;;;;;8.20;3.03;;;;;;;;;;4997671;28;20437;-45
2022/11/08 01:13:30;;;;;;;6.20;2.73;;;;;;;;;;4995991;28;20425;-44
2022/11/08 01:15:56;;;;;;;5.63;3.00;;;;;;;;;;5004882;28;20411;-45
2022/11/08 01:18:22;;;;;;;8.00;2.40;;;;;;;;;;5001875;28;20435;-45
2022/11/08 01:20:48;;;;;;;3.00;2.53;;;;;;;;;;5002259;28;20825;-44
2022/11/08 01:23:15;;;;;;;6.83;3.40;;;;;;;;;;4999823;28;20558;-45
2022/11/08 01:25:42;;;;;;;5.20;2.53;;;;;;;;;;5001970;28;20421;-44
2022/11/08 01:28:08;;;;;;;5.80;2.60;;;;;;;;;;4997584;28;20453;-45
2022/11/08 01:30:38;;;;;;;7.70;2.50;;;;;;;;;;5002039;28;20426;-44
2022/11/08 01:33:04;;;;;;;4.30;3.17;;;;;;;;;;5001773;28;20438;-44
2022/11/08 01:35:31;;;;;;;6.47;3.00;;;;;;;;;;4998755;28;20417;-46
2022/11/08 01:37:57;;;;;;;5.03;2.70;;;;;;;;;;5001711;28;20899;-44
2022/11/08 01:40:23;;;;;;;4.37;2.47;;;;;;;;;;5002358;28;20459;-44
2022/11/08 01:42:49;;;;;;;4.13;2.70;;;;;;;;;;5003666;28;21039;-44
2022/11/08 01:45:15;;;;;;;6.03;2.83;;;;;;;;;;5005568;28;20494;-44
2022/11/08 01:47:41;;;;;;;7.97;2.10;;;;;;;;;;5005365;28;20423;-44
2022/11/08 01:50:16;;;;;;;3.53;2.43;;;;;;;;;;5003729;28;20469;-44
2022/11/08 01:52:47;;;;;;;6.93;2.57;;;;;;;;;;5000690;28;20445;-44
2022/11/08 01:55:16;;;;;;;11.83;4.13;;;;;;;;;;5001592;28;20459;-45
2022/11/08 01:57:45;;;;;;;4.87;2.30;;;;;;;;;;5004727;28;20418;-44
2022/11/08 02:00:11;;;;;;;9.53;2.60;;;;;;;;;;5006136;28;20491;-44
2022/11/08 02:02:38;;;;;;;8.77;2.93;;;;;;;;;;5001127;28;20490;-44
2022/11/08 02:05:06;;;;;;;3.20;2.70;;;;;;;;;;5005025;28;20912;-44
2022/11/08 02:07:33;;;;;;;7.13;3.10;;;;;;;;;;5005594;28;20409;-45
2022/11/08 02:10:00;;;;;;;3.00;2.53;;;;;;;;;;4999315;28;20749;-44
2022/11/08 02:12:26;;;;;;;3.73;2.40;;;;;;;;;;5021320;28;20500;-46
2022/11/08 02:14:52;;;;;;;5.13;3.23;;;;;;;;;;5003675;28;20447;-45
2022/11/08 02:17:18;;;;;;;8.17;4.37;;;;;;;;;;5004055;28;20422;-46
2022/11/08 02:19:45;;;;;;;3.13;2.70;;;;;;;;;;5006125;28;20403;-44
2022/11/08 02:22:22;;;;;;;6.37;2.30;;;;;;;;;;5002700;28;20510;-45
2022/11/08 02:24:48;;;;;;;3.10;2.23;;;;;;;;;;5003382;28;20510;-45
2022/11/08 02:27:14;;;;;;;9.60;3.17;;;;;;;;;;5002824;28;20559;-45
2022/11/08 02:29:40;;;;;;;4.57;2.97;;;;;;;;;;5008347;28;20415;-45
2022/11/08 02:32:06;;;;;;;5.60;2.60;;;;;;;;;;5002850;28;20434;-45
2022/11/08 02:34:35;;;;;;;4.67;2.60;;;;;;;;;;4999966;28;20524;-45
2022/11/08 02:37:02;;;;;;;3.50;2.60;;;;;;;;;;5002497;28;20421;-45
2022/11/08 02:39:28;;;;;;;5.27;2.70;;;;;;;;;;5002693;28;20500;-46
2022/11/08 02:41:54;;;;;;;3.53;2.30;;;;;;;;;;5005227;28;20462;-45
2022/11/08 02:44:20;;;;;;;3.30;2.13;;;;;;;;;;5004609;28;20449;-46
2022/11/08 02:46:46;;;;;;;7.17;2.53;;;;;;;;;;5006391;28;20412;-45
2022/11/08 02:49:12;;;;;;;9.90;3.10;;;;;;;;;;5002543;28;20424;-45
2022/11/08 02:51:38;;;;;;;3.60;2.23;;;;;;;;;;4997654;28;20532;-46
2022/11/08 02:54:04;;;;;;;7.50;2.80;;;;;;;;;;5005244;28;20702;-45
2022/11/08 02:56:30;;;;;;;5.70;2.33;;;;;;;;;;5003342;28;20479;-45
2022/11/08 02:58:56;;;;;;;5.57;2.57;;;;;;;;;;5005670;28;20417;-45
2022/11/08 03:01:22;;;;;;;5.83;2.00;;;;;;;;;;5001928;28;20536;-44
2022/11/08 03:03:48;;;;;;;6.00;2.30;;;;;;;;;;5004645;28;20782;-45
2022/11/08 03:06:14;;;;;;;7.77;3.03;;;;;;;;;;5000597;28;20773;-45
2022/11/08 03:08:40;;;;;;;5.37;2.60;;;;;;;;;;5003929;28;20448;-45
2022/11/08 03:11:06;;;;;;;7.47;2.23;;;;;;;;;;4999532;28;20437;-45
2022/11/08 03:13:32;;;;;;;3.67;2.90;;;;;;;;;;5001896;28;20448;-45
2022/11/08 03:16:01;;;;;;;3.13;1.73;;;;;;;;;;5003854;28;20692;-44
2022/11/08 03:18:26;;;;;;;2.43;2.03;;;;;;;;;;5001937;28;20771;-44
2022/11/08 03:20:52;;;;;;;5.57;2.60;;;;;;;;;;4995117;28;20469;-44
2022/11/08 03:23:19;;;;;;;2.70;2.00;;;;;;;;;;4997253;28;20426;-45
2022/11/08 03:25:45;;;;;;;3.23;2.13;;;;;;;;;;5004700;28;20990;-45
2022/11/08 03:28:11;;;;;;;3.13;2.70;;;;;;;;;;5004992;28;20407;-44
2022/11/08 03:30:37;;;;;;;4.70;2.40;;;;;;;;;;4999176;28;20918;-44
2022/11/08 03:33:03;;;;;;;8.20;2.30;;;;;;;;;;5001239;28;20804;-44
2022/11/08 03:35:29;;;;;;;5.50;2.80;;;;;;;;;;5001129;28;20405;-44
2022/11/08 03:37:56;;;;;;;4.77;2.70;;;;;;;;;;4993593;28;20408;-44
2022/11/08 03:40:22;;;;;;;4.03;2.67;;;;;;;;;;5003310;28;20867;-45
2022/11/08 03:42:48;;;;;;;6.20;2.90;;;;;;;;;;5005601;28;20432;-44
2022/11/08 03:45:15;;;;;;;3.30;2.63;;;;;;;;;;5001664;28;20412;-44
2022/11/08 03:47:42;;;;;;;5.73;2.90;;;;;;;;;;4997583;28;20871;-46
2022/11/08 03:50:09;;;;;;;6.60;2.37;;;;;;;;;;5004145;28;20415;-44
2022/11/08 03:52:41;;;;;;;4.53;2.33;;;;;;;;;;5002065;28;20445;-45
2022/11/08 03:55:08;;;;;;;4.20;2.30;;;;;;;;;;5003652;28;20531;-45
2022/11/08 03:57:34;;;;;;;10.53;2.63;;;;;;;;;;5001539;28;20420;-45
2022/11/08 04:00:00;;;;;;;4.80;2.93;;;;;;;;;;5002868;28;20422;-44
2022/11/08 04:02:26;;;;;;;3.47;2.20;;;;;;;;;;5001253;28;20519;-45
2022/11/08 04:04:51;;;;;;;9.30;2.57;;;;;;;;;;5000151;28;20408;-44
2022/11/08 04:07:17;;;;;;;3.13;2.30;;;;;;;;;;5005466;28;20494;-44
2022/11/08 04:09:43;;;;;;;5.77;3.07;;;;;;;;;;5000548;28;20413;-44
2022/11/08 04:23:07;;;;;;;4.07;2.23;;;;;;;;;;5000562;28;20427;-44
2022/11/08 04:25:33;;;;;;;3.23;2.60;;;;;;;;;;5000776;28;20416;-45
2022/11/08 04:27:59;;;;;;;9.57;3.50;;;;;;;;;;5002934;28;20509;-45
2022/11/08 04:30:25;;;;;;;4.27;2.63;;;;;;;;;;4992874;28;20428;-45
2022/11/08 04:32:51;;;;;;;2.97;2.70;;;;;;;;;;5005914;28;20424;-45
2022/11/08 04:35:17;;;;;;;4.50;2.40;;;;;;;;;;4998966;28;20517;-44
2022/11/08 04:37:43;;;;;;;5.33;2.13;;;;;;;;;;5001821;28;20431;-44
2022/11/08 04:40:09;;;;;;;7.43;2.83;;;;;;;;;;5000733;28;20420;-45
2022/11/08 04:42:35;;;;;;;3.33;3.03;;;;;;;;;;5000819;28;20434;-45
2022/11/08 04:45:01;;;;;;;5.83;2.53;;;;;;;;;;5000148;28;20427;-44
2022/11/08 04:47:27;;;;;;;3.90;2.23;;;;;;;;;;5000059;28;20438;-45
2022/11/08 04:49:53;;;;;;;6.10;2.93;;;;;;;;;;5005780;28;21004;-45
2022/11/08 04:52:20;;;;;;;4.33;2.43;;;;;;;;;;5003611;28;20521;-45
2022/11/08 04:54:48;;;;;;;5.60;2.30;;;;;;;;;;4997648;28;20422;-45
2022/11/08 04:57:15;;;;;;;9.63;2.30;;;;;;;;;;4998765;28;20410;-45
2022/11/08 04:59:41;;;;;;;2.70;2.07;;;;;;;;;;5001470;28;20440;-44
2022/11/08 05:02:07;;;;;;;3.20;2.20;;;;;;;;;;5003156;28;20518;-45
2022/11/08 05:04:32;;;;;;;4.43;2.07;;;;;;;;;;5001074;28;20420;-44
2022/11/08 05:06:58;;;;;;;4.70;2.43;;;;;;;;;;5004145;28;20499;-45
2022/11/08 05:09:24;;;;;;;3.97;2.40;;;;;;;;;;5001852;28;20419;-45
2022/11/08 05:11:50;;;;;;;3.10;2.67;;;;;;;;;;4996276;28;20451;-44
2022/11/08 05:14:16;;;;;;;4.13;2.50;;;;;;;;;;4997789;28;20447;-44
2022/11/08 05:16:42;;;;;;;3.93;2.43;;;;;;;;;;5004578;28;20500;-44
2022/11/08 05:19:08;;;;;;;7.20;2.90;;;;;;;;;;5006669;28;20411;-44
2022/11/08 05:24:19;;;;;;;8.27;2.87;;;;;;;;;;4998838;28;20495;-45
2022/11/08 05:26:46;;;;;;;4.03;3.03;;;;;;;;;;5003968;28;20501;-46
2022/11/08 05:29:12;;;;;;;8.10;2.70;;;;;;;;;;5003575;28;20427;-46
2022/11/08 05:31:39;;;;;;;3.27;2.97;;;;;;;;;;5009433;28;20478;-45
2022/11/08 05:34:06;;;;;;;4.53;2.63;;;;;;;;;;5004255;28;20431;-45
2022/11/08 05:36:32;;;;;;;5.90;3.17;;;;;;;;;;5001788;28;20424;-44
2022/11/08 05:38:58;;;;;;;3.07;2.73;;;;;;;;;;5004848;28;20477;-45
2022/11/08 05:41:24;;;;;;;3.10;2.73;;;;;;;;;;5002842;28;20460;-44
2022/11/08 05:43:51;;;;;;;3.00;2.53;;;;;;;;;;5005857;28;20419;-44
2022/11/08 05:46:17;;;;;;;4.60;2.87;;;;;;;;;;5006681;28;20428;-44
2022/11/08 05:48:45;;;;;;;5.10;2.83;;;;;;;;;;5007920;28;20411;-44
2022/11/08 05:51:12;;;;;;;4.47;3.20;;;;;;;;;;5003435;28;20454;-45
2022/11/08 05:53:38;;;;;;;3.07;2.80;;;;;;;;;;4999848;28;20428;-45
2022/11/08 05:56:04;;;;;;;7.20;3.30;;;;;;;;;;5006226;28;20425;-44
2022/11/08 05:58:31;;;;;;;6.50;2.90;;;;;;;;;;5004824;28;20444;-46
2022/11/08 06:01:00;;;;;;;3.17;2.70;;;;;;;;;;5006085;28;20896;-45
2022/11/08 06:03:26;;;;;;;3.13;2.47;;;;;;;;;;5003244;28;20424;-46
2022/11/08 06:05:52;;;;;;;4.03;2.50;;;;;;;;;;5005863;28;20906;-45
2022/11/08 06:08:18;;;;;;;5.27;2.53;;;;;;;;;;5003016;28;20485;-43
2022/11/08 06:10:44;;;;;;;3.23;2.40;;;;;;;;;;5003966;28;20425;-44
2022/11/08 06:13:10;;;;;;;4.53;2.90;;;;;;;;;;5006482;28;20411;-44
2022/11/08 06:15:36;;;;;;;3.20;2.37;;;;;;;;;;5002392;28;20417;-44
2022/11/08 06:18:03;;;;;;;3.40;2.30;;;;;;;;;;5001795;28;20493;-44
2022/11/08 06:20:29;;;;;;;6.70;2.30;;;;;;;;;;5002495;28;20459;-44
2022/11/08 06:22:55;;;;;;;3.50;2.50;;;;;;;;;;5010661;28;20512;-44
2022/11/08 06:25:21;;;;;;;3.10;2.37;;;;;;;;;;5001084;28;20430;-44
2022/11/08 06:27:47;;;;;;;2.30;2.00;;;;;;;;;;5002311;28;20424;-44
2022/11/08 06:30:13;;;;;;;2.30;2.10;;;;;;;;;;5003158;28;20469;-44
2022/11/08 06:32:40;;;;;;;5.57;2.30;;;;;;;;;;5000458;28;20799;-44
2022/11/08 06:35:06;;;;;;;2.40;2.20;;;;;;;;;;5002230;28;20811;-44
2022/11/08 06:37:32;;;;;;;5.40;2.37;;;;;;;;;;5002162;28;20402;-44
2022/11/08 06:39:58;;;;;;;6.20;2.60;;;;;;;;;;5001689;28;20402;-44
2022/11/08 06:42:24;;;;;;;4.00;2.27;;;;;;;;;;5002325;28;20954;-43
2022/11/08 06:44:50;;;;;;;3.50;1.90;;;;;;;;;;5006762;28;20509;-44
2022/11/08 06:47:16;;;;;;;3.10;2.57;;;;;;;;;;5003306;28;20461;-44
2022/11/08 06:49:42;;;;;;;4.93;2.40;;;;;;;;;;4999255;28;20504;-45
2022/11/08 06:52:08;;;;;;;2.77;2.10;;;;;;;;;;4999945;28;20810;-45
2022/11/08 06:54:34;;;;;;;2.20;2.00;;;;;;;;;;5001060;28;20451;-44
2022/11/08 06:57:01;;;;;;;2.17;2.00;;;;;;;;;;5000267;28;20474;-45
2022/11/08 06:59:27;;;;;;;2.17;1.80;;;;;;;;;;4993034;28;20839;-45
2022/11/08 07:01:53;;;;;;;2.20;1.90;;;;;;;;;;5000814;28;20483;-44
2022/11/08 07:04:19;;;;;;;4.73;2.10;;;;;;;;;;4995182;28;20421;-45
2022/11/08 07:06:45;;;;;;;4.33;1.77;;;;;;;;;;5002248;28;20421;-44
2022/11/08 07:09:11;;;;;;;3.00;1.73;;;;;;;;;;5000048;28;20432;-45
2022/11/08 07:11:37;;;;;;;3.20;1.50;;;;;;;;;;5002355;28;20496;-45
2022/11/08 07:14:03;;;;;;;7.67;1.97;;;;;;;;;;5000771;28;20479;-45
2022/11/08 07:16:29;;;;;;;3.13;2.10;;;;;;;;;;5000872;28;20413;-44
2022/11/08 07:18:55;;;;;;;2.33;1.70;;;;;;;;;;5003572;28;20495;-45
2022/11/08 07:21:21;;;;;;;5.70;2.10;;;;;;;;;;4990919;28;20504;-44
2022/11/08 07:23:47;;;;;;;1.80;1.70;;;;;;;;;;5001252;28;20412;-47
2022/11/08 07:26:14;;;;;;;4.60;1.80;;;;;;;;;;4995319;28;20421;-47
2022/11/08 07:28:40;;;;;;;2.40;1.83;;;;;;;;;;4993112;28;20422;-45
2022/11/08 07:31:07;;;;;;;2.10;2.00;;;;;;;;;;5003957;28;20446;-46
2022/11/08 07:33:33;;;;;;;1.57;1.47;;;;;;;;;;5003323;28;20440;-45
2022/11/08 07:35:59;;;;;;;2.53;1.90;;;;;;;;;;5001313;28;20460;-46
2022/11/08 07:38:25;;;;;;;2.60;1.93;;;;;;;;;;5001016;28;20510;-45
2022/11/08 07:40:54;;;;;;;1.90;1.57;;;;;;;;;;5005862;28;20955;-44
2022/11/08 07:43:20;;;;;;;3.30;1.80;;;;;;;;;;5001877;28;20842;-45
2022/11/08 07:45:47;;;;;;;2.07;1.87;;;;;;;;;;5002894;28;20509;-45
2022/11/08 07:48:13;;;;;;;2.83;1.60;;;;;;;;;;4999032;28;20907;-46
2022/11/08 07:50:40;;;;;;;3.80;1.60;;;;;;;;;;4997660;28;20419;-47
2022/11/08 07:53:06;;;;;;;3.80;1.97;;;;;;;;;;4998153;28;20415;-50
2022/11/08 07:55:32;;;;;;;1.50;1.40;;;;;;;;;;4995920;28;20449;-49
2022/11/08 07:58:02;;;;;;;1.97;1.83;;;;;;;;;;5005647;28;20412;-50
2022/11/08 08:00:31;;;;;;;5.73;1.97;;;;;;;;;;5005729;28;20866;-49
2022/11/08 08:02:58;;;;;;;2.87;1.80;;;;;;;;;;4990795;28;20415;-47
2022/11/08 08:05:24;;;;;;;3.00;1.63;;;;;;;;;;5009051;28;20411;-45
2022/11/08 08:07:50;;;;;;;2.27;2.00;;;;;;;;;;5000883;28;20414;-45
2022/11/08 08:10:16;;;;;;;1.80;1.67;;;;;;;;;;5003978;28;20814;-45
2022/11/08 08:12:42;;;;;;;3.50;1.80;;;;;;;;;;5001461;28;20434;-47
2022/11/08 08:15:08;;;;;;;2.13;1.80;;;;;;;;;;4998482;28;20389;-48
2022/11/08 08:17:34;;;;;;;1.97;1.77;;;;;;;;;;5002993;28;20476;-48
2022/11/08 08:20:00;;;;;;;1.87;1.73;;;;;;;;;;4999849;28;20423;-45
2022/11/08 08:22:26;;;;;;;4.50;1.73;;;;;;;;;;5004864;28;20495;-45
2022/11/08 08:24:52;;;;;;;2.80;1.77;;;;;;;;;;4995086;28;20419;-43
2022/11/08 08:27:18;;;;;;;2.63;2.17;;;;;;;;;;4998718;28;20423;-44
2022/11/08 08:29:44;;;;;;;1.60;1.50;;;;;;;;;;5000046;28;20562;-44
2022/11/08 08:32:10;;;;;;;2.53;1.73;;;;;;;;;;4999406;28;20437;-45
2022/11/08 08:34:36;;;;;;;2.33;2.20;;;;;;;;;;5000468;28;20432;-46
2022/11/08 08:37:02;;;;;;;4.33;2.10;;;;;;;;;;5004306;28;20415;-46
2022/11/08 08:39:28;;;;;;;2.50;1.73;;;;;;;;;;4995695;28;20426;-47
2022/11/08 08:41:54;;;;;;;3.47;1.70;;;;;;;;;;5001543;28;20470;-47
2022/11/08 08:44:20;;;;;;;3.47;1.50;;;;;;;;;;4996692;28;20423;-47
2022/11/08 08:46:46;;;;;;;1.83;1.70;;;;;;;;;;5001754;28;20419;-47
2022/11/08 08:49:12;;;;;;;1.60;1.50;;;;;;;;;;4998477;28;20447;-47
2022/11/08 08:51:38;;;;;;;3.10;1.80;;;;;;;;;;5000059;28;20469;-46
2022/11/08 08:54:04;;;;;;;2.23;1.60;;;;;;;;;;5002355;28;20420;-48
2022/11/08 08:56:30;;;;;;;2.30;1.80;;;;;;;;;;5001854;28;20429;-46
2022/11/08 08:58:56;;;;;;;2.10;1.70;;;;;;;;;;4985640;28;20897;-49
2022/11/08 09:01:22;;;;;;;5.47;2.00;;;;;;;;;;4995139;28;20494;-47
2022/11/08 09:03:48;;;;;;;2.07;1.73;;;;;;;;;;4991140;28;20456;-47
2022/11/08 09:06:14;;;;;;;2.40;1.80;;;;;;;;;;4999360;28;20459;-47
2022/11/08 09:08:40;;;;;;;3.83;1.97;;;;;;;;;;5000651;28;20470;-46
2022/11/08 09:11:06;;;;;;;2.53;1.60;;;;;;;;;;4999586;28;20451;-46
2022/11/08 09:13:32;;;;;;;3.30;1.73;;;;;;;;;;4999467;28;20444;-47
2022/11/08 09:16:00;;;;;;;1.63;1.53;;;;;;;;;;4999372;28;20414;-47
2022/11/08 09:18:26;;;;;;;2.60;2.40;;;;;;;;;;5004233;28;20860;-46
2022/11/08 09:20:55;;;;;;;2.33;1.50;;;;;;;;;;4997977;28;20473;-47
2022/11/08 09:23:21;;;;;;;2.90;1.90;;;;;;;;;;4997960;28;20817;-47
2022/11/08 09:25:47;;;;;;;3.33;2.13;;;;;;;;;;5002217;28;20390;-47
2022/11/08 09:28:12;;;;;;;2.50;2.30;;;;;;;;;;4999380;28;20916;-49
2022/11/08 09:30:38;;;;;;;2.50;1.93;;;;;;;;;;5002010;28;20748;-47
2022/11/08 09:33:04;;;;;;;2.20;1.60;;;;;;;;;;4999195;28;20488;-47
2022/11/08 09:35:30;;;;;;;2.00;1.70;;;;;;;;;;5002522;28;20392;-47
2022/11/08 09:37:57;;;;;;;2.40;1.67;;;;;;;;;;4996796;28;20411;-47
2022/11/08 09:40:37;;;;;;;1.67;1.57;;;;;;;;;;4995997;28;20397;-48
2022/11/08 09:43:15;;;;;;;2.50;1.60;;;;;;;;;;4995881;28;20393;-47
2022/11/08 09:45:45;;;;;;;2.43;1.37;;;;;;;;;;5002490;28;20437;-46
2022/11/08 09:48:22;;;;;;;2.10;1.50;;;;;;;;;;5001034;28;20760;-46
2022/11/08 09:50:50;;;;;;;3.10;1.70;;;;;;;;;;5003059;28;21050;-46
2022/11/08 09:53:18;;;;;;;1.60;1.50;;;;;;;;;;4999461;28;20417;-46
2022/11/08 09:55:47;;;;;;;2.60;1.47;;;;;;;;;;4999710;28;20473;-45
2022/11/08 09:58:13;;;;;;;2.30;2.10;;;;;;;;;;4999123;28;20789;-45
2022/11/08 10:00:40;;;;;;;2.43;1.80;;;;;;;;;;5003319;28;20448;-46
2022/11/08 10:03:10;;;;;;;1.47;1.37;;;;;;;;;;4988077;28;20436;-46
2022/11/08 10:05:39;;;;;;;5.90;1.73;;;;;;;;;;4990529;28;20466;-45
2022/11/08 10:08:12;;;;;;;2.00;1.90;;;;;;;;;;4994899;28;20381;-45
2022/11/08 10:10:44;;;;;;;3.20;2.40;;;;;;;;;;4985938;28;20448;-46
2022/11/08 10:13:28;;;;;;;2.13;1.93;;;;;;;;;;4994352;28;20465;-46
2022/11/08 10:15:54;;;;;;;1.97;1.60;;;;;;;;;;4998808;28;20435;-46
2022/11/08 10:18:23;;;;;;;1.90;1.80;;;;;;;;;;4994391;28;20394;-45
2022/11/08 10:20:52;;;;;;;3.43;2.00;;;;;;;;;;4992445;28;20471;-46
2022/11/08 10:23:20;;;;;;;1.80;1.70;;;;;;;;;;5002155;28;20424;-47
2022/11/08 10:26:06;;;;;;;2.03;1.80;;;;;;;;;;5006601;28;20767;-46
2022/11/08 10:28:40;;;;;;;5.57;1.80;;;;;;;;;;4996931;28;20900;-46
2022/11/08 10:31:06;;;;;;;1.87;1.77;;;;;;;;;;4995150;28;20794;-50
2022/11/08 10:33:34;;;;;;;2.37;2.00;;;;;;;;;;4992859;28;21002;-46
2022/11/08 10:36:07;;;;;;;8.40;6.23;;;;;;;;;;4996814;28;20814;-46
2022/11/08 10:38:40;;;;;;;2.07;1.57;;;;;;;;;;4994484;28;20483;-45
2022/11/08 10:41:17;;;;;;;2.33;2.10;;;;;;;;;;4992804;28;20965;-45
2022/11/08 10:43:50;;;;;;;1.80;1.70;;;;;;;;;;4989660;28;20403;-47
2022/11/08 10:46:26;;;;;;;3.20;1.83;;;;;;;;;;4993972;28;20382;-45
2022/11/08 10:48:52;;;;;;;3.93;2.07;;;;;;;;;;5003339;28;20458;-45
2022/11/08 10:51:18;;;;;;;8.73;3.00;;;;;;;;;;5000591;28;20524;-46
2022/11/08 10:53:44;;;;;;;4.00;2.43;;;;;;;;;;4993810;28;20409;-48
2022/11/08 10:56:10;;;;;;;2.37;2.13;;;;;;;;;;4992986;28;20416;-45
2022/11/08 10:58:36;;;;;;;2.10;1.87;;;;;;;;;;4998974;28;20423;-45
2022/11/08 11:01:13;;;;;;;1.80;1.70;;;;;;;;;;4998559;28;20449;-45
2022/11/08 11:03:39;;;;;;;4.13;2.90;;;;;;;;;;4989317;28;20971;-46
2022/11/08 11:06:06;;;;;;;1.80;1.70;;;;;;;;;;4992303;28;20482;-46
2022/11/08 11:08:33;;;;;;;2.37;1.60;;;;;;;;;;5001666;28;20416;-46
2022/11/08 11:11:20;;;;;;;1.90;1.80;;;;;;;;;;4996150;28;20452;-45
2022/11/08 11:14:03;;;;;;;3.50;2.10;;;;;;;;;;4992005;28;20397;-46
2022/11/08 11:16:29;;;;;;;6.60;2.60;;;;;;;;;;5002488;28;20420;-45
2022/11/08 11:18:56;;;;;;;3.97;1.83;;;;;;;;;;5005117;28;20379;-46
2022/11/08 11:21:23;;;;;;;5.73;2.10;;;;;;;;;;5003006;28;20968;-46
2022/11/08 11:23:49;;;;;;;2.50;2.10;;;;;;;;;;4993175;28;20496;-46
2022/11/08 11:26:33;;;;;;;3.37;1.90;;;;;;;;;;4999169;28;20492;-46
2022/11/08 11:28:59;;;;;;;2.97;2.20;;;;;;;;;;4994019;28;20870;-45
2022/11/08 11:31:25;;;;;;;2.53;1.83;;;;;;;;;;4999839;28;20432;-47
2022/11/08 11:33:50;;;;;;;2.07;1.97;;;;;;;;;;4992008;28;21031;-46
2022/11/08 11:36:19;;;;;;;2.30;2.10;;;;;;;;;;4990610;28;20495;-46
2022/11/08 11:39:08;;;;;;;5.33;2.03;;;;;;;;;;4988784;28;20396;-46
2022/11/08 11:41:42;;;;;;;3.27;2.40;;;;;;;;;;4989247;28;21334;-46
2022/11/08 11:44:14;;;;;;;2.60;2.40;;;;;;;;;;4993066;28;20517;-47
2022/11/08 11:46:59;;;;;;;7.10;2.77;;;;;;;;;;4988970;28;20432;-45
2022/11/08 11:49:26;;;;;;;1.97;1.87;;;;;;;;;;4986853;28;20977;-48
2022/11/08 11:51:53;;;;;;;2.77;2.00;;;;;;;;;;4989683;28;20418;-47
2022/11/08 11:54:27;;;;;;;2.33;2.10;;;;;;;;;;4993367;28;20395;-48
2022/11/08 11:56:53;;;;;;;3.53;2.20;;;;;;;;;;5000933;28;20408;-45
2022/11/08 11:59:38;;;;;;;2.70;2.00;;;;;;;;;;4991168;28;20771;-46
2022/11/08 12:02:22;;;;;;;3.57;1.97;;;;;;;;;;4990511;28;20498;-46
2022/11/08 12:04:54;;;;;;;2.90;2.10;;;;;;;;;;4992391;28;20479;-44
2022/11/08 12:07:20;;;;;;;2.43;2.13;;;;;;;;;;4999440;28;20418;-45
2022/11/08 12:10:05;;;;;;;1.97;1.87;;;;;;;;;;4989828;28;20433;-48
2022/11/08 12:12:40;;;;;;;2.00;1.90;;;;;;;;;;4994223;28;20448;-48
2022/11/08 12:15:09;;;;;;;3.97;2.30;;;;;;;;;;4993091;28;20920;-48
2022/11/08 12:17:54;;;;;;;3.13;1.97;;;;;;;;;;4994309;28;20499;-47
2022/11/08 12:20:38;;;;;;;4.37;2.30;;;;;;;;;;4993318;28;20432;-48
2022/11/08 12:23:30;;;;;;;3.57;2.40;;;;;;;;;;5002013;28;20408;-44
2022/11/08 12:26:04;;;;;;;3.93;1.80;;;;;;;;;;4976931;28;20441;-45
2022/11/08 12:28:39;;;;;;;2.80;2.50;;;;;;;;;;4989931;28;20928;-46
2022/11/08 12:31:05;;;;;;;6.00;2.20;;;;;;;;;;4984920;28;21317;-46
2022/11/08 12:33:37;;;;;;;3.10;2.10;;;;;;;;;;4998305;28;20520;-46
2022/11/08 12:36:19;;;;;;;3.77;2.00;;;;;;;;;;4996536;28;20435;-46
2022/11/08 12:39:04;;;;;;;3.30;2.80;;;;;;;;;;4990342;28;20463;-46
2022/11/08 12:41:38;;;;;;;2.30;1.90;;;;;;;;;;4984682;28;20469;-46
2022/11/08 12:44:13;;;;;;;3.03;2.10;;;;;;;;;;4986611;28;20453;-47
2022/11/08 12:46:51;;;;;;;2.47;2.03;;;;;;;;;;4989710;28;20949;-46
2022/11/08 12:49:36;;;;;;;3.13;2.10;;;;;;;;;;4988068;28;20921;-46
2022/11/08 12:52:02;;;;;;;7.80;2.07;;;;;;;;;;4982053;28;20465;-44
2022/11/08 12:54:32;;;;;;;5.37;2.10;;;;;;;;;;4987790;28;20486;-45
2022/11/08 12:57:00;;;;;;;2.20;2.00;;;;;;;;;;4992708;28;20430;-44
2022/11/08 12:59:48;;;;;;;3.10;1.87;;;;;;;;;;4988645;28;20446;-43
2022/11/08 13:02:22;;;;;;;2.47;2.23;;;;;;;;;;4985067;28;20928;-51
2022/11/08 13:04:57;;;;;;;2.27;2.07;;;;;;;;;;4990765;28;20785;-47
2022/11/08 13:07:33;;;;;;;3.30;2.10;;;;;;;;;;4991636;28;20465;-48
2022/11/08 13:10:06;;;;;;;1.90;1.80;;;;;;;;;;4989732;28;20404;-47
2022/11/08 13:12:38;;;;;;;3.30;2.30;;;;;;;;;;4993004;28;20439;-48
2022/11/08 13:15:13;;;;;;;3.23;1.93;;;;;;;;;;4994938;28;20767;-46
2022/11/08 13:17:39;;;;;;;4.23;2.57;;;;;;;;;;4991117;28;20906;-47
2022/11/08 13:20:06;;;;;;;2.90;2.10;;;;;;;;;;4991572;28;20530;-47
2022/11/08 13:22:32;;;;;;;2.73;2.07;;;;;;;;;;4991048;28;20452;-47
2022/11/08 13:24:58;;;;;;;2.97;2.20;;;;;;;;;;4992075;28;20871;-46
2022/11/08 13:27:30;;;;;;;3.70;2.00;;;;;;;;;;4992576;28;20820;-46
2022/11/08 13:29:57;;;;;;;2.10;1.93;;;;;;;;;;4992630;28;20413;-47
2022/11/08 13:32:29;;;;;;;2.30;1.87;;;;;;;;;;4985045;28;20430;-47
2022/11/08 13:35:05;;;;;;;4.50;2.20;;;;;;;;;;4983428;28;20471;-47
2022/11/08 13:37:42;;;;;;;4.33;2.90;;;;;;;;;;4989239;28;20464;-46
2022/11/08 13:40:20;;;;;;;2.00;1.80;;;;;;;;;;4985527;28;20973;-46
2022/11/08 13:42:49;;;;;;;3.07;2.00;;;;;;;;;;4993267;28;20451;-46
2022/11/08 13:45:24;;;;;;;2.27;2.07;;;;;;;;;;5001452;28;20455;-46
2022/11/08 13:47:52;;;;;;;2.70;2.07;;;;;;;;;;4990458;28;20444;-46
2022/11/08 13:50:27;;;;;;;4.30;1.83;;;;;;;;;;4990979;28;20399;-45
2022/11/08 13:53:02;;;;;;;3.77;1.80;;;;;;;;;;4993096;28;20439;-46
2022/11/08 13:55:44;;;;;;;4.93;2.13;;;;;;;;;;4991405;28;20392;-46
2022/11/08 13:58:28;;;;;;;2.20;2.03;;;;;;;;;;4993615;28;20403;-47
2022/11/08 14:00:55;;;;;;;2.27;2.07;;;;;;;;;;4990863;28;20445;-47
2022/11/08 14:03:47;;;;;;;3.90;1.97;;;;;;;;;;4993897;28;20435;-46
2022/11/08 14:06:12;;;;;;;2.70;2.17;;;;;;;;;;4968868;28;20415;-46
2022/11/08 14:08:48;;;;;;;8.77;2.57;;;;;;;;;;4993091;28;20504;-46
2022/11/08 14:11:14;;;;;;;3.30;2.27;;;;;;;;;;4992348;28;20439;-45
2022/11/08 14:13:50;;;;;;;2.00;1.77;;;;;;;;;;4992262;28;20405;-45
2022/11/08 14:16:18;;;;;;;3.47;2.30;;;;;;;;;;4991602;28;20420;-46
2022/11/08 14:18:45;;;;;;;2.90;2.20;;;;;;;;;;4989147;28;20440;-46
2022/11/08 14:21:15;;;;;;;3.40;2.50;;;;;;;;;;4993356;28;20962;-45
2022/11/08 14:23:41;;;;;;;2.60;2.10;;;;;;;;;;4989593;28;20404;-45
2022/11/08 14:26:11;;;;;;;2.37;2.00;;;;;;;;;;4988596;28;20479;-46
2022/11/08 14:28:38;;;;;;;7.60;2.20;;;;;;;;;;4991385;28;20425;-46
2022/11/08 14:31:05;;;;;;;2.13;2.03;;;;;;;;;;4993053;28;20421;-47
2022/11/08 14:33:36;;;;;;;4.40;1.90;;;;;;;;;;4991428;28;20436;-46
2022/11/08 14:36:04;;;;;;;2.23;2.03;;;;;;;;;;4987262;28;20937;-48
2022/11/08 14:38:32;;;;;;;2.60;2.00;;;;;;;;;;4994376;28;20413;-48
2022/11/08 14:41:05;;;;;;;2.03;1.90;;;;;;;;;;4990506;28;20491;-49
2022/11/08 14:43:36;;;;;;;3.73;2.10;;;;;;;;;;4988469;28;20407;-47
2022/11/08 14:46:12;;;;;;;3.30;2.20;;;;;;;;;;4990143;28;20491;-49
2022/11/08 14:48:47;;;;;;;2.93;2.07;;;;;;;;;;4993607;28;20416;-47
2022/11/08 14:51:13;;;;;;;3.37;2.00;;;;;;;;;;4990313;28;20416;-48
2022/11/08 14:53:47;;;;;;;6.37;2.20;;;;;;;;;;4994960;28;20411;-47
2022/11/08 14:56:15;;;;;;;2.27;2.07;;;;;;;;;;4995971;28;20937;-48
2022/11/08 14:58:41;;;;;;;5.13;2.27;;;;;;;;;;4992664;28;20433;-51
2022/11/08 15:01:09;;;;;;;4.70;2.10;;;;;;;;;;4992552;28;20447;-50
2022/11/08 15:03:35;;;;;;;5.20;2.10;;;;;;;;;;4988037;28;20434;-46
2022/11/08 15:06:02;;;;;;;2.30;2.10;;;;;;;;;;4990905;28;20407;-45
2022/11/08 15:08:36;;;;;;;2.93;2.10;;;;;;;;;;4992588;28;20871;-47
2022/11/08 15:11:04;;;;;;;2.40;2.20;;;;;;;;;;4998827;28;20405;-49
2022/11/08 15:13:33;;;;;;;2.90;2.70;;;;;;;;;;4990194;28;20444;-51